Time;durP1;ratioP1;P1;durP2;ratioP2;P2;SDS_P1;SDS_P2;PMS_P1;PMS_P2;Temp;Humidity;BMP_temperature;BMP_pressure;BME280_temperature;BME280_humidity;BME280_pressure;Samples;Min_cycle;Max_cycle;Signal;HPM_P1;HPM_P2
2022/03/26 05:01:58;;;;;;;41.10;23.47;;;6.50;90.70;;;;;;5270207;23;20497;-77
2022/03/26 05:04:24;;;;;;;42.63;23.13;;;6.40;90.80;;;;;;4947892;29;20544;-77
2022/03/26 05:06:51;;;;;;;43.80;22.90;;;6.40;90.90;;;;;;4947557;28;20462;-77
2022/03/26 05:09:18;;;;;;;38.83;23.20;;;6.40;90.90;;;;;;4948069;28;20464;-78
2022/03/26 05:11:45;;;;;;;40.93;22.60;;;6.40;91.20;;;;;;4947733;29;20762;-78
2022/03/26 05:14:13;;;;;;;42.53;23.13;;;6.40;91.20;;;;;;4946938;28;20596;-78
2022/03/26 05:16:40;;;;;;;41.13;21.90;;;6.30;91.30;;;;;;4947480;28;20472;-78
2022/03/26 05:19:08;;;;;;;37.73;22.10;;;6.20;91.40;;;;;;4947619;28;20465;-78
2022/03/26 05:21:37;;;;;;;36.93;21.37;;;6.20;91.50;;;;;;4947860;29;20572;-78
2022/03/26 05:24:04;;;;;;;39.27;21.70;;;6.20;91.70;;;;;;4948920;29;20464;-78
2022/03/26 05:26:31;;;;;;;38.30;22.10;;;6.10;92.00;;;;;;4948432;28;20465;-78
2022/03/26 05:29:00;;;;;;;36.57;20.70;;;6.10;92.30;;;;;;4948816;29;20458;-78
2022/03/26 05:31:28;;;;;;;41.63;21.00;;;6.10;92.40;;;;;;4947148;29;20477;-78
2022/03/26 05:33:55;;;;;;;38.60;21.43;;;6.10;92.30;;;;;;4948614;29;20981;-78
2022/03/26 05:36:23;;;;;;;38.20;21.20;;;5.90;92.10;;;;;;4947636;28;20465;-78
2022/03/26 05:38:50;;;;;;;38.53;21.80;;;5.90;92.50;;;;;;4948752;28;20461;-78
2022/03/26 05:41:17;;;;;;;38.63;21.17;;;5.80;92.70;;;;;;4948509;28;20481;-78
2022/03/26 05:43:44;;;;;;;36.40;20.70;;;5.90;92.90;;;;;;4948672;29;21143;-78
2022/03/26 05:46:11;;;;;;;39.33;21.17;;;5.90;93.10;;;;;;4948347;29;20461;-78
2022/03/26 05:48:38;;;;;;;37.73;20.07;;;5.80;93.10;;;;;;4948191;29;20982;-78
2022/03/26 05:51:05;;;;;;;39.47;21.80;;;5.80;93.40;;;;;;4948593;29;20993;-78
2022/03/26 05:53:33;;;;;;;38.17;21.57;;;5.80;93.70;;;;;;4948256;29;20504;-78
2022/03/26 05:56:01;;;;;;;35.90;19.30;;;5.80;93.70;;;;;;4948058;29;20468;-78
2022/03/26 05:58:28;;;;;;;35.40;19.63;;;5.80;93.70;;;;;;4948075;29;20492;-78
2022/03/26 06:00:55;;;;;;;36.30;19.20;;;5.80;93.60;;;;;;4948148;29;21084;-78
2022/03/26 06:03:22;;;;;;;38.43;21.03;;;5.80;93.90;;;;;;4948725;29;20457;-78
2022/03/26 06:05:49;;;;;;;42.10;20.07;;;5.90;94.00;;;;;;4948565;29;20465;-78
2022/03/26 06:08:16;;;;;;;32.73;18.63;;;5.90;93.60;;;;;;4947995;29;20463;-78
2022/03/26 06:10:44;;;;;;;33.80;18.00;;;5.90;93.90;;;;;;4948829;28;20568;-78
2022/03/26 06:13:11;;;;;;;34.97;20.70;;;5.90;93.80;;;;;;4948230;29;20497;-78
2022/03/26 06:15:37;;;;;;;39.40;20.77;;;5.90;93.80;;;;;;4948148;29;21394;-78
2022/03/26 06:18:05;;;;;;;34.33;17.93;;;6.00;94.30;;;;;;4947858;29;20536;-78
2022/03/26 06:20:32;;;;;;;36.33;20.27;;;6.00;94.40;;;;;;4948296;28;21328;-78
2022/03/26 06:22:59;;;;;;;42.17;20.40;;;5.90;94.60;;;;;;4948311;29;20465;-78
2022/03/26 06:25:26;;;;;;;40.90;21.40;;;6.00;94.70;;;;;;4950105;28;20461;-78
2022/03/26 06:27:54;;;;;;;37.00;19.63;;;6.00;94.90;;;;;;4951944;29;20456;-77
2022/03/26 06:30:21;;;;;;;34.57;20.10;;;6.10;94.80;;;;;;4952492;28;20457;-78
2022/03/26 06:32:47;;;;;;;35.13;20.33;;;6.10;95.20;;;;;;4952000;29;20453;-78
2022/03/26 06:35:14;;;;;;;40.70;19.97;;;6.10;95.10;;;;;;4952200;29;21296;-77
2022/03/26 06:37:41;;;;;;;40.50;20.30;;;6.10;95.60;;;;;;4950418;29;20975;-65
2022/03/26 06:40:09;;;;;;;35.90;19.20;;;6.10;95.40;;;;;;4951069;29;20484;-64
2022/03/26 06:42:36;;;;;;;37.17;20.70;;;6.10;95.70;;;;;;4950818;28;20457;-65
2022/03/26 06:45:05;;;;;;;35.67;20.93;;;6.20;95.70;;;;;;4950999;29;20449;-64
2022/03/26 06:47:32;;;;;;;35.20;19.37;;;6.20;95.60;;;;;;4950333;28;20461;-64
2022/03/26 06:49:59;;;;;;;42.23;22.80;;;6.20;95.70;;;;;;4949041;29;20476;-64
2022/03/26 06:52:32;;;;;;;43.33;21.60;;;6.20;96.00;;;;;;4950895;29;20474;-83
2022/03/26 06:55:02;;;;;;;40.40;22.67;;;6.30;96.20;;;;;;4955216;29;20587;-84
2022/03/26 06:57:29;;;;;;;41.00;21.40;;;6.40;96.00;;;;;;4954207;29;20446;-84
2022/03/26 06:59:55;;;;;;;37.53;21.00;;;6.40;96.00;;;;;;4955335;28;20460;-84
2022/03/26 07:02:23;;;;;;;38.40;21.10;;;6.50;96.70;;;;;;4955586;29;20485;-84
2022/03/26 07:04:50;;;;;;;37.50;20.70;;;6.50;96.80;;;;;;4954864;29;20457;-84
2022/03/26 07:07:17;;;;;;;37.73;22.33;;;6.60;97.40;;;;;;4956059;28;20964;-84
2022/03/26 07:09:44;;;;;;;40.00;20.73;;;6.70;97.20;;;;;;4957139;29;20548;-83
2022/03/26 07:12:12;;;;;;;39.57;21.40;;;6.70;97.10;;;;;;4956674;29;20481;-83
2022/03/26 07:14:39;;;;;;;35.30;20.47;;;6.90;96.80;;;;;;4957277;28;20564;-84
2022/03/26 07:17:07;;;;;;;37.83;19.40;;;7.00;96.10;;;;;;4957263;29;20461;-81
2022/03/26 07:19:35;;;;;;;38.53;20.00;;;7.10;95.70;;;;;;4954218;28;20474;-79
2022/03/26 07:22:03;;;;;;;39.30;20.07;;;7.20;95.10;;;;;;4957606;28;20485;-81
2022/03/26 07:24:30;;;;;;;38.37;17.73;;;7.30;94.50;;;;;;4957200;28;21169;-81
2022/03/26 07:26:57;;;;;;;39.00;21.23;;;7.40;94.80;;;;;;4955674;28;20551;-83
2022/03/26 07:29:24;;;;;;;36.70;19.23;;;7.50;94.30;;;;;;4956127;29;20954;-80
2022/03/26 07:31:51;;;;;;;49.10;19.73;;;7.60;94.30;;;;;;4961880;29;20558;-88
2022/03/26 07:34:18;;;;;;;34.67;19.00;;;7.70;94.60;;;;;;4966711;28;20528;-82
2022/03/26 07:36:46;;;;;;;38.80;20.03;;;7.80;93.60;;;;;;4959119;28;20478;-82
2022/03/26 07:39:13;;;;;;;36.47;19.20;;;8.00;93.80;;;;;;4956435;29;20837;-80
2022/03/26 07:41:40;;;;;;;31.60;17.90;;;8.20;93.90;;;;;;4954354;29;20517;-82
2022/03/26 07:44:08;;;;;;;38.20;19.87;;;8.30;93.50;;;;;;4953281;28;20461;-86
2022/03/26 07:46:35;;;;;;;33.70;19.50;;;8.40;93.40;;;;;;4951156;29;20472;-83
2022/03/26 07:49:03;;;;;;;37.90;19.47;;;8.50;93.60;;;;;;4963536;28;20437;-84
2022/03/26 07:51:29;;;;;;;39.90;22.27;;;8.60;94.10;;;;;;4972516;28;20558;-78
2022/03/26 07:53:58;;;;;;;33.00;18.80;;;8.80;94.50;;;;;;4973987;28;20504;-82
2022/03/26 07:56:24;;;;;;;40.13;20.23;;;9.00;93.60;;;;;;4973267;28;20459;-78
2022/03/26 07:58:51;;;;;;;33.60;19.53;;;9.10;93.20;;;;;;4973433;28;20470;-80
2022/03/26 08:01:18;;;;;;;33.23;19.33;;;9.30;92.50;;;;;;4972695;28;20489;-79
2022/03/26 08:03:45;;;;;;;37.47;20.83;;;9.40;92.80;;;;;;4967727;28;20496;-79
2022/03/26 08:06:12;;;;;;;36.50;19.83;;;9.50;92.50;;;;;;4957464;29;20472;-79
2022/03/26 08:08:40;;;;;;;40.17;21.10;;;9.70;92.00;;;;;;4957199;28;20458;-79
2022/03/26 08:11:08;;;;;;;37.53;20.40;;;9.80;92.40;;;;;;4953191;28;20478;-77
2022/03/26 08:13:35;;;;;;;37.23;20.90;;;10.00;91.10;;;;;;4952085;28;21251;-79
2022/03/26 08:16:02;;;;;;;36.77;19.30;;;10.20;91.20;;;;;;4952308;28;20460;-78
2022/03/26 08:18:29;;;;;;;40.03;21.70;;;10.30;91.80;;;;;;4948990;28;20453;-66
2022/03/26 08:20:56;;;;;;;36.47;20.57;;;10.50;90.00;;;;;;4948827;28;20492;-78
2022/03/26 08:23:23;;;;;;;32.33;18.33;;;10.60;89.50;;;;;;4950776;29;20497;-79
2022/03/26 08:28:36;;;;;;;45.83;20.80;;;11.10;90.00;;;;;;4955530;29;21189;-79
2022/03/26 08:31:03;;;;;;;35.80;20.17;;;11.40;87.70;;;;;;4957552;29;20578;-80
2022/03/26 08:33:30;;;;;;;36.43;19.50;;;11.70;88.30;;;;;;4956742;28;20458;-80
2022/03/26 08:35:57;;;;;;;32.60;19.50;;;12.10;89.40;;;;;;4958226;28;20915;-81
2022/03/26 08:38:24;;;;;;;35.30;20.50;;;12.40;85.20;;;;;;4955376;29;20533;-81
2022/03/26 08:40:51;;;;;;;37.43;20.10;;;12.70;85.80;;;;;;4955201;29;20482;-81
2022/03/26 08:43:18;;;;;;;36.93;20.90;;;12.90;84.50;;;;;;4955423;29;20489;-81
2022/03/26 08:45:46;;;;;;;32.33;21.47;;;13.20;84.20;;;;;;4955381;29;20513;-81
2022/03/26 08:48:15;;;;;;;38.07;21.70;;;13.30;83.00;;;;;;4950735;28;20488;-80
2022/03/26 08:50:42;;;;;;;35.27;21.53;;;13.60;83.90;;;;;;4955743;29;20505;-80
2022/03/26 08:53:10;;;;;;;40.53;21.00;;;13.90;81.70;;;;;;4955161;29;20572;-81
2022/03/26 08:55:37;;;;;;;35.37;21.67;;;14.10;81.40;;;;;;4956142;29;20619;-81
2022/03/26 08:58:04;;;;;;;40.30;22.23;;;14.60;79.50;;;;;;4955280;28;20463;-81
2022/03/26 09:00:31;;;;;;;34.43;20.97;;;14.70;78.90;;;;;;4954927;28;20532;-81
2022/03/26 09:02:59;;;;;;;35.53;20.80;;;14.80;78.20;;;;;;4955500;29;20859;-81
2022/03/26 09:05:26;;;;;;;38.03;22.13;;;15.00;78.00;;;;;;4954982;29;20545;-81
2022/03/26 09:07:53;;;;;;;35.33;21.07;;;15.00;76.70;;;;;;4955838;29;20560;-81
2022/03/26 09:10:20;;;;;;;37.83;21.20;;;15.10;77.20;;;;;;4956305;28;20458;-80
2022/03/26 09:12:47;;;;;;;42.27;21.80;;;15.20;77.20;;;;;;4956983;28;20999;-80
2022/03/26 09:15:14;;;;;;;38.90;20.40;;;15.30;78.20;;;;;;4956455;29;20496;-80
2022/03/26 09:17:42;;;;;;;34.70;21.30;;;15.50;77.10;;;;;;4956133;29;20484;-80
2022/03/26 09:20:11;;;;;;;37.53;21.70;;;15.70;78.60;;;;;;4956147;29;20549;-81
2022/03/26 09:22:38;;;;;;;40.70;21.97;;;16.00;77.00;;;;;;4956938;29;20508;-81
2022/03/26 09:25:06;;;;;;;37.67;22.13;;;16.20;76.40;;;;;;4956256;28;20514;-81
2022/03/26 09:27:33;;;;;;;37.70;20.97;;;16.50;76.20;;;;;;4956052;28;20481;-81
2022/03/26 09:30:00;;;;;;;38.53;23.10;;;17.20;73.90;;;;;;4953607;29;20544;-81
2022/03/26 09:32:26;;;;;;;46.33;23.70;;;17.30;77.90;;;;;;4953725;29;20486;-80
2022/03/26 09:34:53;;;;;;;40.73;23.63;;;17.40;75.10;;;;;;4954104;29;21122;-79
2022/03/26 09:37:22;;;;;;;37.20;20.93;;;17.50;75.30;;;;;;4951505;29;20457;-80
2022/03/26 09:39:48;;;;;;;37.07;21.77;;;17.50;73.10;;;;;;4953378;29;20559;-81
2022/03/26 09:42:16;;;;;;;35.70;20.87;;;17.60;73.10;;;;;;4959061;28;20481;-80
2022/03/26 09:44:43;;;;;;;36.63;20.70;;;17.90;73.80;;;;;;4960871;28;20446;-80
2022/03/26 09:47:10;;;;;;;36.93;21.83;;;18.10;74.10;;;;;;4956346;28;20485;-80
2022/03/26 09:49:38;;;;;;;35.20;20.53;;;18.30;71.60;;;;;;4957621;28;20461;-80
2022/03/26 09:52:06;;;;;;;32.17;20.17;;;18.30;71.60;;;;;;4955067;29;20478;-80
2022/03/26 09:54:36;;;;;;;31.50;18.80;;;18.50;71.70;;;;;;4950070;28;20938;-80
2022/03/26 09:57:03;;;;;;;32.50;19.80;;;18.80;70.70;;;;;;4966156;28;20462;-79
2022/03/26 09:59:30;;;;;;;34.97;19.20;;;19.30;68.30;;;;;;4968864;28;20488;-79
2022/03/26 10:01:57;;;;;;;31.90;19.03;;;19.30;67.80;;;;;;4968340;28;20488;-79
2022/03/26 10:04:26;;;;;;;28.57;19.00;;;19.60;67.60;;;;;;4969290;28;20449;-79
2022/03/26 10:06:55;;;;;;;35.67;20.17;;;19.50;66.20;;;;;;4967276;28;20468;-79
2022/03/26 10:09:33;;;;;;;32.40;20.10;;;19.50;64.80;;;;;;4953340;28;20572;-79
2022/03/26 10:12:03;;;;;;;33.70;20.40;;;19.60;65.00;;;;;;4949824;29;21013;-79
2022/03/26 10:14:42;;;;;;;31.97;19.73;;;19.70;64.50;;;;;;4950924;29;20497;-79
2022/03/26 10:17:14;;;;;;;33.57;20.00;;;19.70;62.50;;;;;;4951414;29;20529;-79
2022/03/26 10:19:46;;;;;;;34.93;20.20;;;19.70;64.80;;;;;;4951046;28;20560;-79
2022/03/26 10:22:23;;;;;;;33.87;20.17;;;20.10;64.50;;;;;;4951778;28;20540;-80
2022/03/26 10:24:50;;;;;;;34.17;20.70;;;20.50;65.70;;;;;;4952170;28;21296;-79
2022/03/26 10:27:19;;;;;;;31.03;19.77;;;20.60;62.20;;;;;;4950206;28;20461;-79
2022/03/26 10:29:50;;;;;;;30.93;20.47;;;20.70;62.00;;;;;;4944259;28;21170;-81
2022/03/26 10:32:43;;;;;;;30.00;20.33;;;20.80;62.20;;;;;;4950275;29;20477;-78
2022/03/26 10:35:22;;;;;;;32.27;20.03;;;20.70;60.20;;;;;;4953365;28;20861;-80
2022/03/26 10:37:53;;;;;;;29.33;19.47;;;20.80;61.30;;;;;;4952103;29;20556;-80
2022/03/26 10:40:32;;;;;;;39.50;20.37;;;21.00;62.20;;;;;;4951618;29;21285;-80
2022/03/26 10:43:03;;;;;;;26.90;18.17;;;21.10;60.00;;;;;;4951280;29;20434;-79
2022/03/26 10:45:32;;;;;;;28.17;19.77;;;21.40;59.20;;;;;;4952954;29;20958;-80
2022/03/26 10:48:00;;;;;;;27.13;18.70;;;21.60;60.50;;;;;;4953864;29;20536;-79
2022/03/26 10:50:32;;;;;;;30.03;19.00;;;21.90;59.80;;;;;;4947876;29;21334;-77
2022/03/26 10:52:58;;;;;;;35.37;20.13;;;22.30;58.90;;;;;;4946836;29;20465;-78
2022/03/26 10:55:25;;;;;;;30.60;18.80;;;22.50;59.60;;;;;;4946735;28;20497;-78
2022/03/26 10:57:52;;;;;;;30.73;18.97;;;22.40;59.80;;;;;;4946377;28;20463;-78
2022/03/26 11:00:22;;;;;;;31.80;20.20;;;22.40;59.70;;;;;;4945612;28;21293;-78
2022/03/26 11:02:50;;;;;;;32.00;19.37;;;22.30;58.90;;;;;;4946994;29;20560;-78
2022/03/26 11:05:17;;;;;;;31.20;17.87;;;22.30;60.70;;;;;;4947141;28;20504;-66
2022/03/26 11:07:44;;;;;;;32.20;19.23;;;22.10;60.00;;;21.99;nan;99239.22;4946148;29;20925;-66
2022/03/26 11:10:13;;;;;;;28.47;19.80;;;22.10;59.60;;;;;;4946680;29;20799;-66
2022/03/26 11:12:45;;;;;;;32.30;18.80;;;22.00;59.10;;;;;;4948037;28;20453;-67
2022/03/26 11:15:17;;;;;;;28.00;17.57;;;22.00;59.60;;;;;;4950392;29;20564;-66
2022/03/26 11:18:05;;;;;;;26.73;17.57;;;22.00;57.40;;;;;;4950022;29;20525;-66
2022/03/26 11:20:54;;;;;;;28.40;17.57;;;21.90;58.80;;;;;;4950304;29;20492;-66
2022/03/26 11:23:39;;;;;;;30.27;18.80;;;22.00;57.60;;;;;;4949749;29;20441;-66
2022/03/26 11:26:23;;;;;;;28.03;17.60;;;22.00;58.10;;;;;;4950214;28;20449;-66
2022/03/26 11:29:00;;;;;;;28.80;18.30;;;21.90;57.60;;;;;;4951462;29;20985;-80
2022/03/26 11:31:34;;;;;;;26.17;17.40;;;21.80;56.90;;;;;;4958267;29;20617;-80
2022/03/26 11:34:10;;;;;;;26.00;17.23;;;21.80;57.50;;;;;;4958349;29;20444;-79
2022/03/26 11:36:37;;;;;;;26.10;16.00;;;21.90;57.70;;;;;;4970920;29;20477;-80
2022/03/26 11:39:12;;;;;;;24.50;16.17;;;22.00;56.30;;;;;;4971030;29;20485;-79
2022/03/26 11:41:40;;;;;;;22.30;15.00;;;22.30;54.60;;;;;;4973301;29;20704;-81
2022/03/26 11:44:08;;;;;;;22.13;16.50;;;22.40;53.80;;;;;;4973331;28;20468;-81
2022/03/26 11:52:20;;;;;;;25.50;15.60;;;22.80;53.60;;;;;;4954393;29;20485;-81
2022/03/26 11:54:48;;;;;;;28.57;15.83;;;22.80;52.20;;;;;;4957356;29;20979;-82
2022/03/26 11:57:21;;;;;;;24.17;15.63;;;22.70;52.80;;;;;;4963321;29;20480;-82
2022/03/26 11:59:48;;;;;;;32.57;16.40;;;22.80;54.20;;;;;;4966410;28;21045;-83
2022/03/26 12:02:17;;;;;;;21.87;15.03;;;22.80;53.10;;;;;;4968020;28;20932;-83
2022/03/26 12:04:57;;;;;;;23.83;16.20;;;22.70;52.90;;;;;;4966007;29;20446;-83
2022/03/26 12:07:28;;;;;;;23.53;16.47;;;22.70;53.50;;;;;;4959919;29;20445;-83
2022/03/26 12:10:06;;;;;;;24.27;16.53;;;22.80;52.70;;;;;;4955819;29;20458;-84
2022/03/26 12:12:50;;;;;;;23.70;16.20;;;22.80;52.40;;;;;;4954672;28;20481;-83
2022/03/26 12:15:28;;;;;;;26.73;16.60;;;22.90;52.40;;;;;;4955724;28;20501;-83
2022/03/26 12:18:12;;;;;;;23.50;15.10;;;22.90;52.40;;;;;;4954436;29;20445;-83
2022/03/26 12:20:42;;;;;;;25.57;15.50;;;22.90;51.60;;;;;;4954868;29;20527;-83
2022/03/26 12:23:12;;;;;;;20.60;14.20;;;23.00;51.80;;;;;;4957185;28;20453;-81
2022/03/26 12:25:46;;;;;;;20.43;15.27;;;23.00;52.30;;;;;;4955763;28;20467;-81
2022/03/26 12:28:15;;;;;;;23.17;15.77;;;23.00;50.90;;;;;;4955149;28;20452;-82
2022/03/26 12:30:48;;;;;;;25.33;16.10;;;22.90;52.70;;;;;;4956346;29;20993;-81
2022/03/26 12:33:15;;;;;;;26.97;16.60;;;23.00;53.00;;;;;;4955684;29;20457;-82
2022/03/26 12:35:45;;;;;;;22.13;16.13;;;23.00;52.80;;;;;;4955329;29;20505;-83
2022/03/26 12:38:13;;;;;;;26.07;17.10;;;23.00;52.90;;;;;;4953516;29;20962;-84
2022/03/26 12:40:42;;;;;;;27.73;15.60;;;23.00;52.80;;;;;;4954634;29;20534;-82
2022/03/26 12:43:11;;;;;;;22.37;15.23;;;22.80;52.20;;;;;;4955140;28;20541;-82
2022/03/26 12:45:39;;;;;;;23.43;14.70;;;22.70;53.10;;;;;;4955019;29;20456;-82
2022/03/26 12:48:11;;;;;;;22.07;16.27;;;22.60;52.80;;;;;;4953230;28;20461;-82
2022/03/26 12:50:40;;;;;;;24.23;14.00;;;22.70;51.90;;;;;;4954595;29;20570;-83
2022/03/26 12:53:12;;;;;;;21.40;15.20;;;22.90;52.60;;;;;;4955644;28;20457;-83
2022/03/26 12:55:40;;;;;;;24.07;15.50;;;23.00;52.00;;;;;;4953695;28;20588;-83
2022/03/26 13:01:02;;;;;;;23.90;15.67;;;22.90;52.30;;;;;;4954369;28;20850;-83
2022/03/26 13:03:29;;;;;;;21.07;13.00;;;23.10;52.20;;;;;;4954391;29;20544;-83
2022/03/26 13:05:56;;;;;;;24.37;15.33;;;23.20;52.60;;;;;;4953857;28;20457;-82
2022/03/26 13:08:26;;;;;;;17.70;13.43;;;23.30;50.70;;;23.48;nan;99155.03;4953325;28;20572;-83
2022/03/26 13:10:53;;;;;;;24.93;15.63;;;23.40;50.60;;;;;;4955009;29;20512;-83
2022/03/26 13:13:20;;;;;;;23.20;14.87;;;23.50;48.90;;;;;;4954918;29;20457;-81
2022/03/26 13:16:01;;;;;;;21.10;13.20;;;23.40;50.10;;;;;;4954136;28;20501;-83
2022/03/26 13:18:28;;;;;;;18.60;13.60;;;23.20;50.40;;;;;;4950486;29;20434;-84
2022/03/26 13:20:57;;;;;;;27.53;14.97;;;23.20;51.10;;;;;;4949066;29;20576;-85
2022/03/26 13:23:29;;;;;;;25.40;15.30;;;23.20;50.00;;;;;;4948287;29;20993;-87
2022/03/26 13:25:56;;;;;;;23.47;15.03;;;23.20;50.90;;;;;;4948270;29;20445;-86
2022/03/26 13:28:24;;;;;;;22.10;15.77;;;23.30;51.60;;;;;;4948452;29;20465;-85
2022/03/26 13:30:53;;;;;;;25.00;15.57;;;23.30;51.50;;;;;;4948780;28;20485;-85
2022/03/26 13:33:23;;;;;;;24.20;15.87;;;23.40;52.10;;;;;;4948626;28;20495;-84
2022/03/26 13:35:52;;;;;;;26.07;16.33;;;23.30;51.40;;;;;;4948118;28;20548;-84
2022/03/26 13:38:19;;;;;;;26.70;15.90;;;23.40;51.70;;;;;;4968805;28;20540;-83
2022/03/26 13:40:47;;;;;;;26.00;16.50;;;23.40;51.60;;;;;;4970898;28;20915;-83
2022/03/26 13:43:14;;;;;;;27.10;15.63;;;23.30;51.30;;;;;;4970462;28;20449;-84
2022/03/26 13:45:43;;;;;;;21.23;14.40;;;23.30;52.30;;;;;;4969811;28;20491;-87
2022/03/26 13:48:11;;;;;;;23.67;15.50;;;23.20;52.10;;;;;;4970069;28;20447;-84
2022/03/26 13:50:39;;;;;;;25.43;15.10;;;23.30;51.80;;;;;;4970448;28;20481;-84
2022/03/26 13:53:18;;;;;;;23.33;15.90;;;23.40;52.40;;;;;;4970529;28;20929;-84
2022/03/26 13:55:49;;;;;;;21.10;14.17;;;23.50;51.60;;;;;;4970474;28;21018;-84
2022/03/26 13:58:23;;;;;;;21.90;14.43;;;23.60;50.70;;;;;;4978230;28;20479;-85
2022/03/26 14:00:50;;;;;;;24.37;15.53;;;23.70;52.30;;;;;;4983717;28;20479;-87
2022/03/26 14:03:17;;;;;;;24.23;16.37;;;23.70;52.00;;;;;;4956468;28;20452;-84
2022/03/26 14:05:44;;;;;;;21.53;15.23;;;23.70;52.00;;;;;;4951506;28;20537;-85
2022/03/26 14:08:12;;;;;;;26.60;17.40;;;23.70;51.20;;;;;;4950733;29;20469;-85
2022/03/26 14:10:41;;;;;;;23.80;15.00;;;23.70;52.00;;;;;;4950699;29;21012;-84
2022/03/26 14:13:12;;;;;;;25.27;14.47;;;23.90;52.30;;;;;;4951122;29;20453;-85
2022/03/26 14:15:40;;;;;;;25.50;15.60;;;24.00;50.90;;;;;;4950305;29;20501;-84
2022/03/26 14:18:08;;;;;;;27.30;16.40;;;24.10;50.80;;;;;;4950342;29;20460;-86
2022/03/26 14:20:36;;;;;;;25.73;15.97;;;24.10;51.20;;;;;;4949303;28;20481;-84
2022/03/26 14:23:05;;;;;;;26.17;17.03;;;24.20;51.60;;;;;;4950143;29;21000;-84
2022/03/26 14:25:33;;;;;;;24.60;15.60;;;24.30;52.10;;;;;;4950870;29;20474;-84
2022/03/26 14:28:02;;;;;;;23.97;15.77;;;24.40;52.30;;;;;;4950292;29;20472;-84
2022/03/26 14:30:30;;;;;;;23.63;15.60;;;24.50;52.00;;;;;;4950547;29;20454;-84
2022/03/26 14:32:58;;;;;;;22.50;14.67;;;24.60;52.00;;;;;;4949817;29;20528;-85
2022/03/26 14:35:25;;;;;;;23.30;14.53;;;24.70;51.00;;;;;;4950962;29;20445;-85
2022/03/26 14:37:52;;;;;;;18.50;13.90;;;24.80;51.70;;;;;;4950098;29;20458;-85
2022/03/26 14:40:19;;;;;;;25.47;15.33;;;24.90;51.80;;;;;;4940837;29;20557;-84
2022/03/26 14:42:45;;;;;;;25.73;15.27;;;24.90;50.80;;;;;;4950706;29;20832;-84
2022/03/26 14:45:13;;;;;;;20.70;13.97;;;25.00;50.50;;;;;;4950799;28;20566;-84
2022/03/26 14:47:41;;;;;;;22.60;15.07;;;25.00;51.00;;;;;;4953275;28;20449;-85
2022/03/26 14:50:10;;;;;;;22.77;14.87;;;25.20;50.90;;;;;;4953999;28;20469;-85
2022/03/26 14:52:37;;;;;;;23.10;14.97;;;25.20;50.00;;;;;;4954190;29;20462;-84
2022/03/26 14:55:05;;;;;;;25.43;15.10;;;25.20;50.20;;;;;;4954451;29;20471;-84
2022/03/26 14:57:32;;;;;;;18.87;13.40;;;25.30;50.20;;;;;;4953551;28;20588;-85
2022/03/26 14:59:59;;;;;;;22.73;14.63;;;25.30;50.20;;;;;;4953589;29;21081;-84
2022/03/26 15:02:26;;;;;;;19.53;13.37;;;25.30;49.70;;;;;;4953486;28;20488;-84
2022/03/26 15:04:55;;;;;;;20.03;12.90;;;25.40;49.70;;;;;;4953941;28;20464;-86
2022/03/26 15:07:22;;;;;;;20.27;12.40;;;25.50;50.80;;;;;;4953136;29;20472;-84
2022/03/26 15:09:49;;;;;;;21.90;14.27;;;25.60;49.30;;;;;;4954277;28;21120;-84
2022/03/26 15:12:15;;;;;;;18.53;12.77;;;25.70;49.00;;;;;;4954069;29;20493;-84
2022/03/26 15:14:42;;;;;;;18.80;12.50;;;25.70;48.20;;;;;;4954404;29;20485;-84
2022/03/26 15:17:10;;;;;;;22.63;12.73;;;25.80;48.50;;;;;;4953983;28;20929;-84
2022/03/26 15:19:37;;;;;;;20.37;12.47;;;25.80;47.80;;;;;;4954599;28;20467;-85
2022/03/26 15:22:06;;;;;;;23.37;11.87;;;25.70;47.60;;;;;;4954782;29;20473;-84
2022/03/26 15:24:33;;;;;;;17.97;13.03;;;25.70;47.80;;;;;;4954776;28;20453;-85
2022/03/26 15:27:00;;;;;;;18.43;13.60;;;25.80;47.50;;;;;;4953955;29;20536;-84
2022/03/26 15:29:27;;;;;;;15.73;11.57;;;25.90;46.60;;;;;;4954399;29;20547;-84
2022/03/26 15:31:54;;;;;;;19.60;11.80;;;26.00;47.30;;;;;;4953260;28;20488;-84
2022/03/26 15:34:22;;;;;;;31.80;12.83;;;26.10;47.40;;;;;;4954395;29;20481;-84
2022/03/26 15:36:49;;;;;;;18.00;11.80;;;26.00;45.80;;;;;;4954008;28;21119;-83
2022/03/26 15:39:18;;;;;;;16.27;10.47;;;26.10;47.20;;;;;;4955020;29;20478;-84
2022/03/26 15:41:45;;;;;;;18.40;11.50;;;26.20;46.60;;;;;;4954392;29;20983;-84
2022/03/26 15:44:12;;;;;;;14.87;11.23;;;26.30;46.20;;;;;;4954264;29;20456;-85
2022/03/26 15:46:39;;;;;;;16.13;11.07;;;26.40;46.20;;;;;;4953622;28;20572;-85
2022/03/26 15:49:05;;;;;;;15.37;10.30;;;26.50;46.60;;;;;;4954412;29;20442;-84
2022/03/26 15:51:33;;;;;;;15.27;10.10;;;26.60;46.00;;;;;;4954364;28;20568;-84
2022/03/26 15:54:00;;;;;;;15.00;10.23;;;26.80;45.70;;;;;;4954981;29;20458;-85
2022/03/26 15:56:29;;;;;;;17.33;9.70;;;27.00;45.40;;;;;;4942083;29;20500;-84
2022/03/26 15:58:56;;;;;;;16.60;9.43;;;27.10;46.60;;;;;;4935247;29;20472;-83
2022/03/26 16:01:23;;;;;;;17.90;9.87;;;26.90;45.10;;;;;;4936402;29;20487;-83
2022/03/26 16:03:50;;;;;;;12.50;8.77;;;27.00;45.50;;;;;;4935228;29;20840;-83
2022/03/26 16:06:17;;;;;;;17.30;9.40;;;27.00;45.10;;;;;;4935291;29;20461;-86
2022/03/26 16:08:43;;;;;;;16.67;10.37;;;27.00;44.40;;;;;;4935435;29;20537;-84
2022/03/26 16:11:10;;;;;;;15.10;10.07;;;26.90;44.10;;;;;;4934457;29;20482;-84
2022/03/26 16:13:39;;;;;;;12.27;9.10;;;26.90;44.40;;;;;;4934235;29;20493;-84
2022/03/26 16:16:06;;;;;;;14.03;8.30;;;26.90;44.50;;;;;;4934075;29;20463;-84
2022/03/26 16:18:33;;;;;;;13.17;9.93;;;26.90;45.10;;;;;;4932880;29;20561;-84
2022/03/26 16:21:02;;;;;;;15.43;9.60;;;26.80;44.50;;;;;;4933751;29;20546;-84
2022/03/26 16:23:28;;;;;;;12.30;8.43;;;26.70;44.50;;;;;;4933999;29;20461;-84
2022/03/26 16:25:57;;;;;;;16.33;9.37;;;26.60;45.40;;;;;;4934548;29;20529;-84
2022/03/26 16:28:23;;;;;;;23.30;9.87;;;26.40;44.90;;;;;;4934674;29;20455;-85
2022/03/26 16:30:52;;;;;;;14.37;9.10;;;26.20;44.70;;;;;;4936154;29;20574;-83
2022/03/26 16:33:19;;;;;;;13.73;8.80;;;26.00;44.80;;;;;;4937061;29;20502;-83
2022/03/26 16:35:47;;;;;;;13.97;9.00;;;25.80;46.50;;;;;;4940930;29;20470;-84
2022/03/26 16:38:14;;;;;;;19.93;9.70;;;25.60;47.00;;;;;;4930977;29;20500;-67
2022/03/26 16:40:42;;;;;;;12.93;9.00;;;25.40;46.10;;;;;;4929773;29;20479;-66
2022/03/26 16:43:09;;;;;;;14.70;9.00;;;25.20;46.50;;;;;;4929373;29;20985;-66
2022/03/26 16:45:36;;;;;;;14.70;8.33;;;25.00;46.60;;;;;;4928284;29;20458;-66
2022/03/26 16:48:05;;;;;;;14.47;10.20;;;24.70;46.80;;;;;;4928187;29;20454;-66
2022/03/26 16:50:32;;;;;;;19.40;9.60;;;24.40;47.90;;;;;;4929599;29;20464;-66
2022/03/26 16:52:59;;;;;;;13.77;8.53;;;24.10;47.90;;;;;;4929531;29;20465;-66
2022/03/26 16:55:27;;;;;;;15.83;8.60;;;23.90;48.70;;;;;;4929037;29;20465;-66
2022/03/26 16:57:56;;;;;;;15.37;8.60;;;23.70;48.40;;;;;;4928139;29;20498;-67
2022/03/26 17:00:24;;;;;;;20.43;9.50;;;23.50;48.80;;;;;;4928535;29;20923;-65
2022/03/26 17:02:51;;;;;;;14.07;8.17;;;23.30;50.40;;;;;;4928996;29;20541;-66
2022/03/26 17:05:19;;;;;;;16.77;8.93;;;23.10;50.50;;;;;;4934012;29;20458;-80
2022/03/26 17:07:46;;;;;;;17.10;9.50;;;22.80;50.10;;;;;;4937085;29;20494;-79
2022/03/26 17:10:13;;;;;;;15.33;9.30;;;22.60;52.40;;;;;;4935224;29;20466;-77
2022/03/26 17:12:40;;;;;;;14.67;9.10;;;22.40;52.50;;;;;;4938863;29;20490;-80
2022/03/26 17:15:08;;;;;;;22.23;10.80;;;22.20;51.30;;;;;;4935920;29;20466;-78
2022/03/26 17:17:35;;;;;;;18.73;10.37;;;22.00;52.90;;;;;;4935663;29;20537;-79
2022/03/26 17:20:02;;;;;;;15.77;9.50;;;21.70;50.40;;;;;;4944007;29;20533;-78
2022/03/26 17:22:30;;;;;;;23.77;13.40;;;21.50;52.40;;;;;;4943033;29;20489;-78
2022/03/26 17:24:57;;;;;;;26.53;16.93;;;21.30;51.60;;;;;;4936210;29;20462;-79
2022/03/26 17:27:24;;;;;;;22.17;12.30;;;21.20;52.60;;;;;;4934618;29;20458;-78
2022/03/26 17:29:51;;;;;;;30.30;15.87;;;21.00;50.60;;;;;;4935428;29;21264;-78
2022/03/26 17:32:18;;;;;;;20.70;12.13;;;20.80;51.90;;;;;;4935286;29;20489;-78
2022/03/26 17:34:45;;;;;;;23.27;10.00;;;20.60;51.20;;;;;;4935850;29;20459;-78
2022/03/26 17:37:13;;;;;;;25.73;11.30;;;20.50;51.80;;;;;;4937151;29;21037;-79
2022/03/26 17:39:41;;;;;;;22.90;9.70;;;20.30;51.70;;;;;;4942671;29;20462;-79
2022/03/26 17:42:08;;;;;;;23.03;9.80;;;20.20;51.80;;;;;;4942032;29;20483;-79
2022/03/26 17:44:35;;;;;;;20.33;10.10;;;20.10;53.20;;;;;;4937561;29;21550;-78
2022/03/26 17:47:02;;;;;;;19.20;10.57;;;20.00;52.70;;;;;;4942410;29;20482;-78
2022/03/26 17:49:29;;;;;;;19.87;9.90;;;19.80;52.70;;;;;;4941709;29;20832;-78